Time;durP1;ratioP1;P1;durP2;ratioP2;P2;SDS_P1;SDS_P2;PMS_P1;PMS_P2;Temp;Humidity;BMP_temperature;BMP_pressure;BME280_temperature;BME280_humidity;BME280_pressure;Samples;Min_cycle;Max_cycle;Signal;HPM_P1;HPM_P2
2022/04/12 00:01:22;;;;;;;22.50;5.27;;;12.90;99.90;;;;;;4987462;28;20197;-67
2022/04/12 00:03:53;;;;;;;26.33;5.23;;;12.90;99.90;;;;;;4988431;28;20332;-66
2022/04/12 00:06:23;;;;;;;21.17;5.73;;;12.90;99.90;;;;;;4986818;28;20208;-67
2022/04/12 00:08:51;;;;;;;23.00;4.77;;;12.90;99.90;;;;;;4988122;28;20757;-66
2022/04/12 00:11:17;;;;;;;20.37;5.03;;;12.90;99.90;;;;;;4987238;28;20709;-66
2022/04/12 00:13:44;;;;;;;33.37;6.07;;;12.90;99.90;;;;;;4986289;28;20181;-65
2022/04/12 00:16:10;;;;;;;24.10;5.47;;;12.90;99.90;;;;;;4974381;28;20696;-66
2022/04/12 00:21:23;;;;;;;19.73;4.50;;;12.80;99.90;;;;;;4994700;28;20197;-67
2022/04/12 00:23:50;;;;;;;22.10;4.60;;;12.80;99.90;;;;;;4987080;28;20197;-65
2022/04/12 00:26:17;;;;;;;18.20;4.37;;;12.80;99.90;;;;;;4987842;28;20217;-67
2022/04/12 00:28:43;;;;;;;22.97;4.90;;;12.80;99.90;;;;;;4987036;28;20240;-67
2022/04/12 00:31:11;;;;;;;16.33;4.10;;;12.70;99.90;;;;;;4992546;28;20193;-65
2022/04/12 00:33:38;;;;;;;11.07;3.03;;;12.70;99.90;;;;;;4992151;28;20370;-65
2022/04/12 00:36:06;;;;;;;13.60;3.10;;;12.70;99.90;;;;;;4985380;28;20185;-65
2022/04/12 00:38:35;;;;;;;11.83;2.63;;;12.60;99.90;;;;;;4984281;28;20194;-66
2022/04/12 00:41:04;;;;;;;8.53;3.20;;;12.60;99.90;;;;;;4987680;28;20185;-66
2022/04/12 00:43:35;;;;;;;10.23;2.73;;;12.60;99.90;;;;;;4987990;28;20193;-66
2022/04/12 00:46:02;;;;;;;11.67;2.57;;;12.60;99.90;;;;;;4988278;28;20188;-66
2022/04/12 00:48:31;;;;;;;8.40;2.27;;;12.50;99.90;;;;;;4986488;28;20208;-65
2022/04/12 00:50:59;;;;;;;12.47;2.30;;;12.50;99.90;;;;;;4995489;28;20622;-65
2022/04/12 00:53:28;;;;;;;8.70;2.23;;;12.50;99.90;;;;;;4997195;28;20200;-66
2022/04/12 00:55:55;;;;;;;3.77;1.60;;;12.40;99.90;;;;;;4987784;28;20192;-65
2022/04/12 00:58:22;;;;;;;11.07;2.20;;;12.40;99.90;;;;;;4983924;28;20189;-66
2022/04/12 01:00:50;;;;;;;8.50;2.00;;;12.40;99.90;;;;;;4987010;28;20197;-66
2022/04/12 01:03:19;;;;;;;6.90;1.60;;;12.30;99.90;;;;;;4987594;28;20189;-65
2022/04/12 01:05:48;;;;;;;9.80;2.20;;;12.20;99.90;;;;;;4985387;28;20190;-66
2022/04/12 01:08:16;;;;;;;4.33;1.47;;;12.20;99.90;;;;;;4985637;28;20292;-67
2022/04/12 01:10:45;;;;;;;6.77;1.80;;;12.20;99.90;;;;;;4982663;28;20221;-65
2022/04/12 01:13:14;;;;;;;9.60;1.70;;;12.10;99.90;;;;;;4986760;28;20185;-65
2022/04/12 01:15:42;;;;;;;9.00;1.50;;;12.10;99.90;;;;;;4972420;28;20209;-66
2022/04/12 01:18:11;;;;;;;5.87;1.37;;;12.10;99.90;;;;;;4985180;28;20193;-66
2022/04/12 01:20:39;;;;;;;5.33;1.33;;;12.10;99.90;;;;;;4987997;28;20200;-65
2022/04/12 01:23:20;;;;;;;9.43;1.80;;;12.00;99.90;;;;;;4983541;28;20198;-67
2022/04/12 01:25:48;;;;;;;10.97;1.93;;;12.00;99.90;;;;;;4994870;28;20659;-65
2022/04/12 01:28:15;;;;;;;9.27;1.77;;;12.00;99.90;;;;;;4984211;28;20205;-65
2022/04/12 01:30:43;;;;;;;9.13;1.80;;;12.00;99.90;;;;;;4985248;28;20214;-65
2022/04/12 01:33:12;;;;;;;6.97;1.40;;;12.00;99.90;;;;;;4983942;28;20913;-65
2022/04/12 01:35:39;;;;;;;12.83;2.17;;;12.00;99.90;;;;;;4984759;28;20749;-65
2022/04/12 01:38:06;;;;;;;3.93;1.33;;;12.00;99.90;;;;;;4986588;28;20702;-66
2022/04/12 01:40:33;;;;;;;11.47;1.87;;;11.90;99.90;;;;;;4986455;28;20197;-65
2022/04/12 01:43:04;;;;;;;6.03;1.53;;;11.90;99.90;;;;;;4984800;28;20193;-65
2022/04/12 01:45:30;;;;;;;5.43;1.40;;;12.00;99.90;;;;;;4985091;28;20189;-65
2022/04/12 01:47:57;;;;;;;7.77;1.70;;;12.00;99.90;;;;;;4985674;28;20305;-66
2022/04/12 01:50:26;;;;;;;6.67;1.50;;;12.00;99.90;;;;;;4985355;28;20213;-65
2022/04/12 01:52:53;;;;;;;8.77;1.70;;;11.90;99.90;;;;;;4989911;28;20190;-66
2022/04/12 01:55:19;;;;;;;4.03;1.50;;;11.90;99.90;;;;;;4983314;28;20194;-65
2022/04/12 01:57:46;;;;;;;6.27;1.50;;;12.00;99.90;;;;;;4983852;28;20193;-66
2022/04/12 02:00:13;;;;;;;6.90;1.60;;;12.00;99.90;;;;;;4984518;28;20272;-66
2022/04/12 02:02:40;;;;;;;6.67;1.70;;;12.00;99.90;;;;;;4986249;28;20311;-65
2022/04/12 02:05:08;;;;;;;6.30;1.40;;;11.90;99.90;;;;;;4984554;28;20658;-66
2022/04/12 02:07:34;;;;;;;6.03;1.80;;;11.90;99.90;;;;;;4987247;28;20221;-65
2022/04/12 02:10:02;;;;;;;8.90;1.67;;;11.90;99.90;;;;;;4983742;28;20252;-65
2022/04/12 02:12:29;;;;;;;15.73;2.50;;;11.90;99.90;;;;;;4982192;28;20196;-66
2022/04/12 02:14:55;;;;;;;8.33;1.73;;;11.80;99.90;;;;;;4984542;28;20192;-65
2022/04/12 02:17:21;;;;;;;10.37;1.97;;;11.80;99.90;;;;;;4986453;28;20866;-65
2022/04/12 02:19:48;;;;;;;6.03;1.70;;;11.80;99.90;;;;;;4974539;28;20216;-66
2022/04/12 02:22:14;;;;;;;6.97;1.70;;;11.80;99.90;;;;;;4999476;28;20224;-64
2022/04/12 02:24:41;;;;;;;6.63;1.67;;;11.80;99.90;;;;;;4984641;28;20651;-66
2022/04/12 02:27:09;;;;;;;7.47;1.70;;;11.80;99.90;;;;;;4982218;28;20190;-66
2022/04/12 02:29:36;;;;;;;7.77;1.70;;;11.70;99.90;;;;;;4968078;28;20210;-65
2022/04/12 02:32:03;;;;;;;9.37;1.60;;;11.70;99.90;;;;;;4970052;28;20225;-65
2022/04/12 02:34:29;;;;;;;9.47;1.70;;;11.70;99.90;;;;;;5000752;28;20192;-67
2022/04/12 02:36:55;;;;;;;11.40;1.87;;;11.60;99.90;;;;;;4986344;28;20724;-66
2022/04/12 02:39:22;;;;;;;9.33;1.87;;;11.60;99.90;;;;;;4976135;28;20197;-65
2022/04/12 02:41:48;;;;;;;8.87;2.20;;;11.60;99.90;;;;;;4969749;28;20190;-66
2022/04/12 02:44:15;;;;;;;8.93;1.73;;;11.60;99.90;;;;;;4984430;28;20197;-65
2022/04/12 02:46:41;;;;;;;11.30;2.27;;;11.60;99.90;;;;;;4981134;28;20186;-65
2022/04/12 02:49:08;;;;;;;6.43;1.90;;;11.60;99.90;;;;;;4981633;28;20217;-67
2022/04/12 02:51:34;;;;;;;8.57;2.20;;;11.60;99.90;;;;;;4969887;28;20194;-66
2022/04/12 02:54:03;;;;;;;8.63;1.97;;;11.60;99.90;;;;;;4993650;28;20229;-66
2022/04/12 02:56:29;;;;;;;10.23;1.93;;;11.50;99.90;;;;;;4971999;28;20217;-65
2022/04/12 02:58:56;;;;;;;7.30;2.10;;;11.50;99.90;;;;;;4989490;28;20651;-65
2022/04/12 03:01:23;;;;;;;11.57;2.13;;;11.50;99.90;;;;;;4971995;28;20209;-66
2022/04/12 03:03:50;;;;;;;6.77;1.90;;;11.50;99.90;;;;;;4976533;28;20201;-65
2022/04/12 03:06:16;;;;;;;12.13;2.20;;;11.50;99.90;;;;;;4988574;28;20574;-66
2022/04/12 03:08:42;;;;;;;9.90;2.47;;;11.50;99.90;;;;;;4984849;28;20941;-65
2022/04/12 03:11:09;;;;;;;7.00;1.87;;;11.50;99.90;;;;;;4989013;28;20626;-65
2022/04/12 03:13:35;;;;;;;8.93;2.10;;;11.50;99.90;;;;;;4989274;28;20189;-65
2022/04/12 03:16:01;;;;;;;11.17;2.40;;;11.50;99.90;;;;;;4988411;28;20210;-66
2022/04/12 03:18:31;;;;;;;7.17;2.00;;;11.50;99.90;;;;;;4980529;28;20655;-65
2022/04/12 03:20:57;;;;;;;7.20;2.20;;;11.60;99.90;;;;;;4970420;28;20340;-63
2022/04/12 03:23:23;;;;;;;8.90;2.17;;;11.60;99.90;;;;;;4981792;28;20511;-65
2022/04/12 03:25:50;;;;;;;10.13;2.10;;;11.60;99.90;;;;;;4987670;28;20190;-66
2022/04/12 03:28:17;;;;;;;8.00;2.40;;;11.60;99.90;;;;;;4978604;28;20208;-65
2022/04/12 03:30:43;;;;;;;8.90;2.60;;;11.70;99.90;;;;;;4991036;28;20245;-66
2022/04/12 03:33:09;;;;;;;11.63;2.50;;;11.70;99.90;;;;;;4990790;28;20205;-65
2022/04/12 03:35:36;;;;;;;9.17;2.43;;;11.70;99.90;;;;;;4991005;28;20260;-66
2022/04/12 03:38:02;;;;;;;7.57;2.53;;;11.70;99.90;;;;;;4988777;28;20737;-66
2022/04/12 03:40:33;;;;;;;8.30;2.70;;;11.70;99.90;;;;;;4967096;28;20198;-66
2022/04/12 03:43:04;;;;;;;14.97;2.80;;;11.60;99.90;;;;;;4991245;28;20204;-65
2022/04/12 03:45:32;;;;;;;11.97;2.70;;;11.60;99.90;;;;;;4977096;28;20205;-65
2022/04/12 03:47:59;;;;;;;11.93;2.93;;;11.60;99.90;;;;;;4971840;28;20561;-65
2022/04/12 03:50:26;;;;;;;9.90;2.47;;;11.60;99.90;;;;;;4971713;28;20236;-66
2022/04/12 03:52:53;;;;;;;8.40;2.50;;;11.60;99.90;;;;;;4985904;28;20670;-66
2022/04/12 03:55:35;;;;;;;10.43;3.00;;;11.60;99.90;;;;;;4991167;28;20203;-65
2022/04/12 03:58:05;;;;;;;13.27;2.37;;;11.60;99.90;;;;;;4988586;28;20190;-65
2022/04/12 04:00:32;;;;;;;13.13;2.70;;;11.60;99.90;;;;;;4987913;28;20275;-66
2022/04/12 04:02:59;;;;;;;12.73;2.67;;;11.60;99.90;;;;;;4989054;28;20673;-65
2022/04/12 04:05:26;;;;;;;12.30;2.73;;;11.60;99.90;;;;;;4991041;28;20203;-65
2022/04/12 04:07:53;;;;;;;12.97;2.37;;;11.60;99.90;;;;;;4987756;28;20193;-66
2022/04/12 04:10:20;;;;;;;21.43;3.87;;;11.60;99.90;;;;;;4985981;28;20238;-67
2022/04/12 04:12:48;;;;;;;9.27;2.30;;;11.70;99.90;;;;;;4975752;28;20747;-66
2022/04/12 04:15:14;;;;;;;10.20;2.43;;;11.70;99.90;;;;;;4974471;28;20229;-67
2022/04/12 04:17:46;;;;;;;10.23;2.77;;;11.70;99.90;;;;;;4970401;28;20186;-65
2022/04/12 04:20:18;;;;;;;13.20;3.07;;;11.70;99.90;;;;;;5001078;28;20221;-65
2022/04/12 04:22:45;;;;;;;10.17;2.77;;;11.70;99.90;;;;;;4977073;28;20231;-64
2022/04/12 04:25:14;;;;;;;11.00;2.67;;;11.70;99.90;;;;;;4969657;28;20206;-65
2022/04/12 04:27:41;;;;;;;10.13;2.80;;;11.70;99.90;;;;;;4986253;28;20208;-65
2022/04/12 04:30:09;;;;;;;11.03;2.87;;;11.70;99.90;;;;;;4989614;28;20229;-65
2022/04/12 04:32:36;;;;;;;15.60;2.87;;;11.70;99.90;;;;;;4973530;28;20226;-65
2022/04/12 04:35:04;;;;;;;15.23;2.80;;;11.70;99.90;;;;;;4985814;28;20574;-66
2022/04/12 04:37:30;;;;;;;10.93;2.60;;;11.70;99.90;;;;;;4992607;28;20189;-66
2022/04/12 04:39:57;;;;;;;9.87;3.77;;;11.70;99.90;;;;;;4988906;28;20383;-65
2022/04/12 04:42:23;;;;;;;9.00;2.23;;;11.70;99.90;;;;;;4975658;28;20209;-66
2022/04/12 04:44:50;;;;;;;11.57;2.93;;;11.80;99.90;;;;;;4986962;28;20255;-65
2022/04/12 04:47:17;;;;;;;13.13;3.10;;;11.80;99.90;;;;;;4991945;28;20197;-66
2022/04/12 04:49:43;;;;;;;12.07;3.00;;;11.80;99.90;;;;;;4970545;28;20206;-65
2022/04/12 04:52:09;;;;;;;10.97;2.63;;;11.80;99.90;;;;;;4971851;28;20237;-66
2022/04/12 04:54:35;;;;;;;9.37;2.73;;;11.80;99.90;;;;;;4988014;28;20228;-66
2022/04/12 04:57:02;;;;;;;8.67;2.60;;;11.80;99.90;;;;;;4987677;28;20193;-65
2022/04/12 04:59:29;;;;;;;7.20;2.40;;;11.90;99.90;;;;;;4986817;28;20212;-65
2022/04/12 05:01:56;;;;;;;9.03;2.73;;;12.00;99.90;;;;;;4985643;28;20197;-66
2022/04/12 05:04:22;;;;;;;8.23;2.87;;;12.00;99.90;;;;;;4988267;28;20272;-66
2022/04/12 05:06:48;;;;;;;10.07;3.00;;;12.00;99.90;;;;;;4988788;28;20190;-67
2022/04/12 05:09:15;;;;;;;8.23;2.80;;;12.00;99.90;;;;;;4987514;28;20226;-65
2022/04/12 05:11:41;;;;;;;13.63;2.83;;;12.00;99.90;;;;;;4985013;28;20284;-65
2022/04/12 05:14:07;;;;;;;10.83;3.03;;;12.00;99.90;;;;;;4978649;28;20785;-65
2022/04/12 05:16:33;;;;;;;9.37;2.50;;;12.10;99.90;;;;;;4980825;28;20263;-65
2022/04/12 05:19:00;;;;;;;9.77;2.53;;;12.10;99.90;;;;;;4969065;28;20562;-67
2022/04/12 05:21:26;;;;;;;8.63;2.77;;;12.10;99.90;;;;;;4986503;28;20729;-65
2022/04/12 05:23:52;;;;;;;7.50;2.37;;;12.10;99.90;;;;;;4984855;28;20733;-66
2022/04/12 05:26:19;;;;;;;10.87;2.60;;;12.20;99.90;;;;;;4969329;28;20232;-65
2022/04/12 05:28:45;;;;;;;9.87;2.27;;;12.20;99.90;;;;;;4989272;28;20188;-65
2022/04/12 05:31:11;;;;;;;7.30;2.23;;;12.20;99.90;;;;;;4986335;28;20559;-66
2022/04/12 05:33:38;;;;;;;8.83;2.33;;;12.30;99.90;;;;;;4975529;28;20190;-66
2022/04/12 05:36:04;;;;;;;9.53;2.30;;;12.30;99.90;;;;;;4996435;28;20654;-66
2022/04/12 05:38:31;;;;;;;9.40;2.63;;;12.30;99.90;;;;;;4984378;28;20195;-64
2022/04/12 05:40:57;;;;;;;10.97;2.17;;;12.40;99.90;;;;;;4976528;28;20567;-66
2022/04/12 05:43:23;;;;;;;9.97;2.70;;;12.40;99.90;;;;;;4976901;28;20265;-65
2022/04/12 05:45:49;;;;;;;8.07;2.50;;;12.50;99.90;;;;;;4987462;28;20197;-65
2022/04/12 05:48:16;;;;;;;7.83;2.00;;;12.50;99.90;;;;;;4982460;28;20198;-65
2022/04/12 05:50:42;;;;;;;7.57;2.23;;;12.50;99.90;;;;;;4989331;28;20224;-65
2022/04/12 05:53:09;;;;;;;9.57;2.50;;;12.50;99.90;;;;;;4985179;28;20195;-65
2022/04/12 05:55:35;;;;;;;11.17;2.83;;;12.60;99.90;;;;;;4982503;28;20268;-65
2022/04/12 05:58:04;;;;;;;6.97;2.47;;;12.60;99.90;;;;;;4982864;28;20637;-66
2022/04/12 06:00:33;;;;;;;11.93;2.37;;;12.60;99.90;;;;;;4981575;28;20631;-65
2022/04/12 06:03:02;;;;;;;10.00;2.83;;;12.60;99.90;;;;;;4983036;28;20193;-65
2022/04/12 06:05:30;;;;;;;11.67;2.20;;;12.70;99.90;;;;;;4987489;28;20197;-66
2022/04/12 06:07:59;;;;;;;5.83;1.90;;;12.80;99.90;;;;;;4987712;28;20224;-66
2022/04/12 06:10:26;;;;;;;5.83;1.80;;;12.80;99.90;;;;;;4987060;28;20229;-65
2022/04/12 06:12:53;;;;;;;6.07;1.97;;;12.80;99.90;;;;;;4972582;28;20197;-66
2022/04/12 06:15:20;;;;;;;9.70;2.60;;;12.90;99.90;;;;;;4986213;28;20209;-65
2022/04/12 06:17:47;;;;;;;7.23;2.10;;;13.00;99.90;;;;;;4987231;28;20197;-65
2022/04/12 06:20:17;;;;;;;9.57;2.37;;;13.00;99.90;;;;;;4988201;28;20275;-65
2022/04/12 06:22:44;;;;;;;12.97;2.50;;;13.00;99.90;;;;;;4977034;28;20198;-66
2022/04/12 06:25:14;;;;;;;9.80;2.50;;;13.10;99.90;;;;;;4970039;28;20193;-65
2022/04/12 06:27:50;;;;;;;9.10;2.53;;;13.10;99.90;;;;;;4984147;28;20193;-66
2022/04/12 06:30:20;;;;;;;10.20;2.63;;;13.20;99.90;;;;;;4994873;28;20221;-65
2022/04/12 06:32:47;;;;;;;7.37;2.10;;;13.20;99.90;;;;;;4988433;28;20779;-65
2022/04/12 06:35:14;;;;;;;9.67;2.20;;;13.20;99.90;;;;;;4985572;28;20227;-67
2022/04/12 06:37:43;;;;;;;6.00;1.93;;;13.30;99.90;;;;;;4989523;28;20288;-65
2022/04/12 06:40:15;;;;;;;7.83;2.20;;;13.30;99.90;;;;;;4981384;28;20194;-66
2022/04/12 06:42:41;;;;;;;10.87;2.10;;;13.30;99.90;;;;;;4987127;28;20213;-65
2022/04/12 06:45:11;;;;;;;7.93;2.13;;;13.40;99.90;;;;;;4970633;28;20204;-65
2022/04/12 06:47:38;;;;;;;7.23;1.87;;;13.50;99.90;;;;;;4979193;28;20205;-65
2022/04/12 06:50:06;;;;;;;11.27;2.30;;;13.50;99.90;;;;;;4990595;28;20232;-65
2022/04/12 06:52:32;;;;;;;8.70;1.93;;;13.50;99.90;;;;;;4990562;28;20196;-65
2022/04/12 06:55:00;;;;;;;8.03;2.10;;;13.60;99.90;;;;;;4984902;28;20240;-66
2022/04/12 06:57:30;;;;;;;10.40;2.87;;;13.70;99.90;;;;;;4987366;28;20189;-65
2022/04/12 06:59:57;;;;;;;8.33;1.90;;;13.70;99.90;;;;;;4989041;28;20229;-66
2022/04/12 07:02:23;;;;;;;15.10;2.47;;;13.80;99.90;;;;;;4986051;28;20209;-66
2022/04/12 07:04:49;;;;;;;8.77;2.10;;;13.80;99.90;;;;;;4969887;28;20201;-65
2022/04/12 07:07:16;;;;;;;7.77;2.20;;;13.80;99.90;;;;;;4982384;28;20729;-67
2022/04/12 07:09:42;;;;;;;3.23;1.70;;;13.90;99.90;;;;;;4985644;28;20210;-66
2022/04/12 07:12:09;;;;;;;7.53;2.07;;;13.90;99.90;;;;;;4989873;28;20217;-66
2022/04/12 07:14:36;;;;;;;6.07;2.00;;;13.90;99.90;;;;;;4987589;28;20193;-65
2022/04/12 07:17:03;;;;;;;8.20;2.00;;;14.00;99.90;;;;;;4988718;28;20221;-66
2022/04/12 07:19:30;;;;;;;9.67;2.10;;;14.00;99.90;;;;;;4977504;28;20987;-65
2022/04/12 07:21:58;;;;;;;4.07;1.90;;;14.00;99.90;;;;;;4991273;28;20861;-66
2022/04/12 07:24:24;;;;;;;7.77;1.87;;;14.10;99.90;;;;;;4989050;28;20198;-65
2022/04/12 07:26:50;;;;;;;5.33;1.90;;;14.20;99.90;;;;;;4986335;28;20193;-65
2022/04/12 07:29:17;;;;;;;7.17;1.70;;;14.20;99.90;;;;;;4989431;28;20221;-67
2022/04/12 07:31:43;;;;;;;6.53;2.10;;;14.20;99.90;;;;;;4990741;28;20194;-66
2022/04/12 07:34:10;;;;;;;5.43;1.80;;;14.30;99.90;;;;;;4981122;28;20240;-66
2022/04/12 07:36:39;;;;;;;6.83;1.47;;;14.40;99.90;;;;;;4984438;28;20199;-66
2022/04/12 07:39:07;;;;;;;9.30;1.80;;;14.50;99.90;;;;;;4990605;28;20562;-66
2022/04/12 07:41:34;;;;;;;6.43;1.83;;;14.60;99.90;;;;;;4989637;28;20197;-66
2022/04/12 07:44:00;;;;;;;5.17;1.77;;;14.60;99.90;;;;;;4990363;28;20236;-66
2022/04/12 07:46:26;;;;;;;7.47;1.67;;;14.60;99.90;;;;;;4995805;28;20753;-65
2022/04/12 07:48:53;;;;;;;11.63;2.07;;;14.60;99.90;;;;;;4988646;28;20197;-65
2022/04/12 07:51:19;;;;;;;7.90;1.50;;;14.60;99.90;;;;;;5000866;28;20908;-67
2022/04/12 07:53:45;;;;;;;5.97;1.73;;;14.70;99.90;;;;;;4970554;28;20241;-66
2022/04/12 07:56:12;;;;;;;6.73;1.63;;;14.70;99.90;;;;;;5004864;28;20197;-67
2022/04/12 07:58:38;;;;;;;5.73;1.67;;;14.80;99.90;;;;;;4986618;28;20848;-65
2022/04/12 08:01:04;;;;;;;12.57;2.63;;;14.90;99.90;;;;;;4992799;28;20642;-65
2022/04/12 08:03:31;;;;;;;7.20;1.83;;;14.90;99.90;;;;;;4989114;28;20204;-68
2022/04/12 08:05:57;;;;;;;6.40;2.00;;;15.00;99.90;;;;;;4987706;28;20194;-65
2022/04/12 08:08:23;;;;;;;5.13;1.83;;;15.00;99.90;;;;;;4988235;28;20193;-65
2022/04/12 08:10:50;;;;;;;9.30;2.03;;;15.00;99.90;;;;;;4991295;28;20296;-66
2022/04/12 08:13:17;;;;;;;7.80;2.37;;;15.10;99.90;;;;;;4990077;28;20201;-66
2022/04/12 08:15:43;;;;;;;6.13;2.00;;;15.10;99.90;;;;;;4990770;28;20295;-66
2022/04/12 08:18:10;;;;;;;6.67;1.77;;;15.10;99.90;;;;;;4986732;28;20201;-67
2022/04/12 08:20:37;;;;;;;8.10;2.07;;;15.20;99.90;;;;;;4989626;28;20205;-66
2022/04/12 08:23:04;;;;;;;5.43;1.70;;;15.20;99.90;;;;;;4989172;28;20639;-67
2022/04/12 08:25:30;;;;;;;8.20;2.10;;;15.20;99.90;;;;;;4986680;28;20201;-66
2022/04/12 08:27:57;;;;;;;5.77;1.67;;;15.30;99.90;;;;;;4990015;28;20622;-66
2022/04/12 08:30:23;;;;;;;8.50;1.63;;;15.30;99.90;;;;;;4973793;28;20213;-67
2022/04/12 08:32:50;;;;;;;8.20;2.07;;;15.30;99.90;;;;;;4990574;28;20189;-65
2022/04/12 08:35:16;;;;;;;14.47;2.10;;;15.30;99.90;;;;;;4990316;28;20229;-66
2022/04/12 08:37:44;;;;;;;11.30;1.90;;;15.40;99.90;;;;;;4992381;28;20189;-66
2022/04/12 08:40:14;;;;;;;11.90;2.43;;;15.40;99.90;;;;;;4990428;28;20208;-65
2022/04/12 08:42:41;;;;;;;12.13;1.63;;;15.50;99.90;;;;;;4986755;28;20328;-66
2022/04/12 08:45:10;;;;;;;8.70;1.90;;;15.60;99.90;;;;;;4979277;28;20197;-65
2022/04/12 08:47:36;;;;;;;9.67;2.40;;;15.60;99.90;;;;;;4982589;28;20631;-66
2022/04/12 08:50:06;;;;;;;4.30;1.60;;;15.60;99.90;;;;;;4991741;28;20220;-66
2022/04/12 08:52:34;;;;;;;9.33;2.10;;;15.60;99.90;;;;;;4986854;28;20194;-66
2022/04/12 08:55:04;;;;;;;5.00;1.60;;;15.70;99.90;;;;;;4987621;28;20181;-66
2022/04/12 08:57:31;;;;;;;4.93;1.60;;;15.80;99.90;;;;;;4986371;28;20221;-66
2022/04/12 08:59:58;;;;;;;7.53;2.17;;;15.80;99.90;;;;;;4987825;28;20577;-65
2022/04/12 09:02:24;;;;;;;9.63;2.03;;;15.90;99.90;;;;;;4997793;28;20277;-66
2022/04/12 09:04:50;;;;;;;7.37;1.90;;;16.00;99.90;;;;;;4996905;28;20720;-66
2022/04/12 09:07:22;;;;;;;6.97;1.90;;;16.00;99.90;;;;;;4983338;28;20197;-66
2022/04/12 09:09:49;;;;;;;9.73;1.97;;;16.00;99.90;;;;;;4979832;28;20300;-66
2022/04/12 09:12:17;;;;;;;7.50;2.00;;;16.20;99.90;;;;;;5002851;28;20213;-66
2022/04/12 09:14:56;;;;;;;9.70;1.80;;;16.30;99.90;;;;;;4986148;28;20575;-66
2022/04/12 09:17:37;;;;;;;7.03;1.80;;;16.40;99.90;;;;;;4986245;28;20190;-66
2022/04/12 09:20:17;;;;;;;9.43;1.80;;;16.50;99.90;;;;;;4997477;28;20205;-66
2022/04/12 09:22:44;;;;;;;8.40;1.70;;;16.70;99.90;;;;;;4982639;28;20562;-66
2022/04/12 09:25:13;;;;;;;11.60;2.03;;;16.80;99.90;;;;;;4985074;28;20217;-67
2022/04/12 09:27:44;;;;;;;6.20;1.73;;;17.00;99.90;;;;;;4969562;28;20416;-66
2022/04/12 09:30:15;;;;;;;7.10;1.90;;;17.10;99.90;;;;;;5002277;28;20213;-66
2022/04/12 09:32:49;;;;;;;6.27;1.90;;;17.20;99.90;;;;;;4990661;28;20197;-66
2022/04/12 09:35:17;;;;;;;5.00;1.50;;;17.40;99.90;;;;;;4987331;28;20600;-67
2022/04/12 09:37:47;;;;;;;9.67;1.77;;;17.40;99.90;;;;;;4969796;28;20287;-65
2022/04/12 09:40:16;;;;;;;7.33;2.20;;;17.40;99.90;;;;;;4985551;28;20197;-66
2022/04/12 09:42:49;;;;;;;6.43;1.60;;;17.60;99.90;;;;;;4989848;28;20288;-66
2022/04/12 09:45:24;;;;;;;6.67;2.00;;;17.70;99.90;;;;;;4969988;28;20194;-67
2022/04/12 09:47:57;;;;;;;7.77;2.13;;;17.80;99.90;;;;;;4974524;28;20198;-67
2022/04/12 09:50:28;;;;;;;9.77;1.67;;;17.80;99.90;;;;;;4988235;28;20221;-65
2022/04/12 09:53:01;;;;;;;8.03;1.60;;;17.80;99.90;;;;;;4988849;28;20196;-66
2022/04/12 09:55:43;;;;;;;6.27;2.00;;;18.00;99.90;;;;;;4986690;28;20197;-66
2022/04/12 09:58:18;;;;;;;9.43;2.33;;;18.00;99.90;;;;;;4986790;28;20185;-67
2022/04/12 10:00:49;;;;;;;6.40;1.63;;;18.20;99.90;;;;;;4988821;28;22027;-67
2022/04/12 10:03:20;;;;;;;9.10;2.30;;;18.10;99.90;;;;;;4987246;28;20206;-67
2022/04/12 10:05:47;;;;;;;6.03;2.03;;;18.30;99.90;;;;;;4987253;28;20875;-66
2022/04/12 10:08:19;;;;;;;7.00;1.87;;;18.50;99.90;;;;;;4986779;28;20196;-67
2022/04/12 10:10:46;;;;;;;5.23;1.80;;;18.60;99.90;;;;;;4988350;28;20693;-66
2022/04/12 10:13:15;;;;;;;7.10;1.70;;;18.70;99.90;;;;;;4970867;28;20181;-65
2022/04/12 10:15:43;;;;;;;5.57;1.60;;;18.70;99.90;;;;;;4983659;28;20221;-66
2022/04/12 10:18:11;;;;;;;6.57;1.90;;;18.70;99.90;;;;;;4985622;28;20631;-66
2022/04/12 10:20:39;;;;;;;4.10;1.70;;;18.80;99.90;;;;;;4981703;28;20224;-68
2022/04/12 10:23:10;;;;;;;7.97;1.80;;;19.00;99.90;;;;;;4986752;28;20642;-66
2022/04/12 10:25:37;;;;;;;5.67;1.80;;;18.80;99.90;;;;;;4970070;28;20670;-66
2022/04/12 10:28:05;;;;;;;8.43;2.23;;;18.90;99.90;;;;;;4982381;28;20224;-67
2022/04/12 10:30:32;;;;;;;8.80;1.93;;;18.80;99.90;;;;;;4967862;28;20833;-66
2022/04/12 10:33:18;;;;;;;3.97;1.50;;;18.60;99.90;;;;;;4986055;28;20201;-66
2022/04/12 10:35:47;;;;;;;4.70;1.70;;;18.70;99.90;;;;;;4986311;28;20222;-66
2022/04/12 10:38:18;;;;;;;7.57;1.93;;;18.60;99.90;;;;;;4987006;28;20221;-66
2022/04/12 10:40:51;;;;;;;11.53;1.87;;;18.40;99.90;;;;;;4982052;28;20210;-65
2022/04/12 10:43:33;;;;;;;8.93;1.73;;;18.50;99.90;;;;;;4985990;28;20252;-67
2022/04/12 10:46:08;;;;;;;8.47;2.10;;;18.60;99.90;;;;;;4994843;28;20277;-66
2022/04/12 10:48:35;;;;;;;6.50;1.70;;;18.40;99.90;;;;;;4987728;28;20911;-66
2022/04/12 10:51:04;;;;;;;4.30;1.77;;;18.30;99.90;;;;;;4966888;28;20267;-65
2022/04/12 10:53:37;;;;;;;9.70;1.70;;;18.20;99.90;;;;;;4977241;28;20193;-67
2022/04/12 10:56:16;;;;;;;8.07;1.87;;;18.10;99.90;;;;;;4987856;28;20943;-65
2022/04/12 10:58:44;;;;;;;11.67;1.80;;;18.10;99.90;;;;;;4983254;28;20209;-66
2022/04/12 11:01:33;;;;;;;7.07;1.70;;;18.10;99.90;;;;;;4986928;28;20194;-66
2022/04/12 11:04:06;;;;;;;6.63;1.80;;;18.00;99.90;;;;;;4985563;28;20197;-66
2022/04/12 11:06:34;;;;;;;6.07;1.73;;;17.80;99.90;;;;;;4974641;28;20232;-67
2022/04/12 11:09:06;;;;;;;7.53;1.53;;;17.80;99.90;;;;;;4964989;28;20209;-67
2022/04/12 11:11:44;;;;;;;9.60;1.80;;;17.70;99.90;;;;;;4984925;28;20193;-66
2022/04/12 11:14:33;;;;;;;7.63;1.63;;;17.80;99.90;;;;;;4975993;28;20589;-65
2022/04/12 11:17:08;;;;;;;8.90;2.10;;;17.60;99.90;;;;;;4992656;28;20229;-67
2022/04/12 11:19:49;;;;;;;9.90;2.00;;;17.60;99.90;;;;;;4990991;28;20576;-66
2022/04/12 11:22:18;;;;;;;6.07;1.60;;;17.60;99.90;;;;;;4986000;28;20224;-66
2022/04/12 11:25:19;;;;;;;3.63;1.67;;;17.60;99.90;;;;;;4981598;28;20245;-66
2022/04/12 11:27:49;;;;;;;8.13;1.93;;;17.60;99.90;;;;;;4990177;28;20212;-66
2022/04/12 11:30:15;;;;;;;8.60;1.80;;;17.50;99.90;;;;;;4987527;28;20217;-66
2022/04/12 11:32:42;;;;;;;6.17;1.40;;;17.50;99.90;;;;;;4987098;28;20225;-66
2022/04/12 11:35:09;;;;;;;11.13;1.80;;;17.50;99.90;;;;;;4986709;28;20290;-66
2022/04/12 11:37:41;;;;;;;4.20;1.30;;;17.50;99.90;;;;;;4989504;28;20209;-66
2022/04/12 11:40:08;;;;;;;6.60;1.60;;;17.50;99.90;;;;;;4983510;28;20200;-68
2022/04/12 11:42:34;;;;;;;5.70;1.80;;;17.40;99.90;;;;;;4999048;28;20201;-68
2022/04/12 11:45:01;;;;;;;8.97;1.73;;;17.40;99.90;;;;;;4979753;28;20198;-66
2022/04/12 11:47:33;;;;;;;5.13;1.73;;;17.50;99.90;;;;;;4984909;28;20190;-67
2022/04/12 11:50:00;;;;;;;6.70;1.63;;;17.40;99.90;;;;;;4986707;28;20267;-66
2022/04/12 11:52:28;;;;;;;8.47;1.70;;;17.30;99.90;;;;;;4989161;28;20186;-66
2022/04/12 11:55:00;;;;;;;5.13;1.40;;;17.40;99.90;;;;;;4990366;28;20881;-66
2022/04/12 11:57:26;;;;;;;4.90;1.40;;;17.40;99.90;;;;;;4984041;28;21007;-66
2022/04/12 11:59:56;;;;;;;6.03;1.50;;;17.50;99.90;;;;;;5001881;28;20197;-66
2022/04/12 12:02:35;;;;;;;8.77;1.63;;;17.40;99.90;;;;;;4986287;28;20198;-66
2022/04/12 12:05:21;;;;;;;2.80;1.30;;;17.30;99.90;;;;;;4986620;28;20232;-67
2022/04/12 12:07:47;;;;;;;3.77;1.60;;;17.40;99.90;;;;;;4992929;28;20244;-66
2022/04/12 12:10:15;;;;;;;7.73;1.70;;;17.40;99.90;;;;;;4989528;28;20249;-66
2022/04/12 12:12:45;;;;;;;4.90;1.43;;;17.40;99.90;;;;;;4990803;28;20184;-66
2022/04/12 12:15:26;;;;;;;6.73;1.50;;;17.40;99.90;;;;;;4989220;28;20196;-66
2022/04/12 12:18:18;;;;;;;4.67;1.60;;;17.40;99.90;;;;;;4990168;28;20189;-66
2022/04/12 12:20:47;;;;;;;6.83;1.50;;;17.40;99.90;;;;;;4989098;28;20594;-67
2022/04/12 12:23:14;;;;;;;4.63;1.73;;;17.30;99.90;;;;;;4990809;28;20193;-66
2022/04/12 12:25:53;;;;;;;9.17;1.63;;;17.30;99.90;;;;;;4989616;28;20201;-66
2022/04/12 12:28:26;;;;;;;5.07;1.50;;;17.40;99.90;;;;;;4987706;28;20216;-67
2022/04/12 12:31:02;;;;;;;6.63;1.60;;;17.30;99.90;;;;;;4989061;28;20222;-66
2022/04/12 12:33:45;;;;;;;6.77;1.60;;;17.30;99.90;;;;;;4983616;28;20701;-66
2022/04/12 12:36:23;;;;;;;8.17;1.97;;;17.30;99.90;;;;;;4990999;28;20185;-67
2022/04/12 12:38:52;;;;;;;8.87;1.80;;;17.30;99.90;;;;;;4988995;28;20197;-66
2022/04/12 12:41:32;;;;;;;9.87;1.90;;;17.30;99.90;;;;;;4989318;28;20189;-66
2022/04/12 12:44:01;;;;;;;7.77;1.83;;;17.30;99.90;;;;;;4989083;28;20232;-67
2022/04/12 12:46:35;;;;;;;11.47;1.87;;;17.20;99.90;;;;;;4989645;28;20305;-66
2022/04/12 12:49:11;;;;;;;5.63;1.90;;;17.20;99.90;;;;;;4987268;28;20196;-67
2022/04/12 12:51:40;;;;;;;5.83;1.90;;;17.20;99.90;;;;;;4983706;28;20232;-67
2022/04/12 12:54:09;;;;;;;9.63;1.70;;;17.20;99.90;;;;;;4990270;28;20305;-66